sensor_id;sensor_type;location;lat;lon;timestamp;P1;durP1;ratioP1;P2;durP2;ratioP2
14732;SDS011;7457;50.960;6.830;2023-03-23T00:01:14;2.65;;;2.20;;
14732;SDS011;7457;50.960;6.830;2023-03-23T00:03:44;2.42;;;2.00;;
14732;SDS011;7457;50.960;6.830;2023-03-23T00:06:15;2.17;;;1.98;;
14732;SDS011;7457;50.960;6.830;2023-03-23T00:08:45;3.70;;;2.10;;
14732;SDS011;7457;50.960;6.830;2023-03-23T00:11:21;2.13;;;1.95;;
14732;SDS011;7457;50.960;6.830;2023-03-23T00:13:50;2.55;;;1.90;;
14732;SDS011;7457;50.960;6.830;2023-03-23T00:16:16;2.95;;;2.10;;
14732;SDS011;7457;50.960;6.830;2023-03-23T00:18:44;2.60;;;1.95;;
14732;SDS011;7457;50.960;6.830;2023-03-23T00:21:20;3.08;;;2.03;;
14732;SDS011;7457;50.960;6.830;2023-03-23T00:26:44;2.60;;;2.03;;
14732;SDS011;7457;50.960;6.830;2023-03-23T00:31:41;4.15;;;2.00;;
14732;SDS011;7457;50.960;6.830;2023-03-23T00:34:11;2.20;;;1.92;;
14732;SDS011;7457;50.960;6.830;2023-03-23T00:36:38;1.95;;;1.80;;
14732;SDS011;7457;50.960;6.830;2023-03-23T00:39:09;3.85;;;2.20;;
14732;SDS011;7457;50.960;6.830;2023-03-23T00:41:35;2.42;;;2.22;;
14732;SDS011;7457;50.960;6.830;2023-03-23T00:44:01;3.45;;;2.20;;
14732;SDS011;7457;50.960;6.830;2023-03-23T00:46:27;2.35;;;2.10;;
14732;SDS011;7457;50.960;6.830;2023-03-23T00:48:53;2.80;;;1.83;;
14732;SDS011;7457;50.960;6.830;2023-03-23T00:51:21;1.90;;;1.75;;
14732;SDS011;7457;50.960;6.830;2023-03-23T00:53:47;2.53;;;2.05;;
14732;SDS011;7457;50.960;6.830;2023-03-23T00:56:13;2.97;;;1.98;;
14732;SDS011;7457;50.960;6.830;2023-03-23T00:58:39;3.33;;;2.22;;
14732;SDS011;7457;50.960;6.830;2023-03-23T01:01:05;2.30;;;2.10;;
14732;SDS011;7457;50.960;6.830;2023-03-23T01:03:31;3.33;;;2.40;;
14732;SDS011;7457;50.960;6.830;2023-03-23T01:06:03;2.80;;;2.15;;
14732;SDS011;7457;50.960;6.830;2023-03-23T01:08:33;2.97;;;2.63;;
14732;SDS011;7457;50.960;6.830;2023-03-23T01:11:05;3.88;;;2.20;;
14732;SDS011;7457;50.960;6.830;2023-03-23T01:13:31;2.78;;;2.22;;
14732;SDS011;7457;50.960;6.830;2023-03-23T01:15:57;3.42;;;2.10;;
14732;SDS011;7457;50.960;6.830;2023-03-23T01:18:23;3.92;;;2.15;;
14732;SDS011;7457;50.960;6.830;2023-03-23T01:20:49;3.35;;;2.03;;
14732;SDS011;7457;50.960;6.830;2023-03-23T01:23:15;3.00;;;2.05;;
14732;SDS011;7457;50.960;6.830;2023-03-23T01:25:40;2.22;;;2.03;;
14732;SDS011;7457;50.960;6.830;2023-03-23T01:28:06;2.20;;;2.00;;
14732;SDS011;7457;50.960;6.830;2023-03-23T01:30:31;2.33;;;1.92;;
14732;SDS011;7457;50.960;6.830;2023-03-23T01:32:57;3.08;;;2.50;;
14732;SDS011;7457;50.960;6.830;2023-03-23T01:35:23;2.97;;;2.40;;
14732;SDS011;7457;50.960;6.830;2023-03-23T01:37:48;3.17;;;2.30;;
14732;SDS011;7457;50.960;6.830;2023-03-23T01:40:14;2.60;;;2.40;;
14732;SDS011;7457;50.960;6.830;2023-03-23T01:42:41;5.20;;;2.55;;
14732;SDS011;7457;50.960;6.830;2023-03-23T01:45:21;3.33;;;2.70;;
14732;SDS011;7457;50.960;6.830;2023-03-23T01:47:56;4.47;;;2.50;;
14732;SDS011;7457;50.960;6.830;2023-03-23T01:50:44;3.90;;;2.65;;
14732;SDS011;7457;50.960;6.830;2023-03-23T01:53:12;3.33;;;2.80;;
14732;SDS011;7457;50.960;6.830;2023-03-23T01:55:39;4.00;;;2.30;;
14732;SDS011;7457;50.960;6.830;2023-03-23T01:58:07;4.75;;;3.25;;
14732;SDS011;7457;50.960;6.830;2023-03-23T02:00:36;5.70;;;3.28;;
14732;SDS011;7457;50.960;6.830;2023-03-23T02:03:05;4.75;;;3.17;;
14732;SDS011;7457;50.960;6.830;2023-03-23T02:05:36;5.38;;;2.60;;
14732;SDS011;7457;50.960;6.830;2023-03-23T02:08:04;3.65;;;2.80;;
14732;SDS011;7457;50.960;6.830;2023-03-23T02:10:32;3.03;;;2.72;;
14732;SDS011;7457;50.960;6.830;2023-03-23T02:12:59;2.80;;;2.58;;
14732;SDS011;7457;50.960;6.830;2023-03-23T02:15:27;2.92;;;2.58;;
14732;SDS011;7457;50.960;6.830;2023-03-23T02:18:16;2.63;;;2.42;;
14732;SDS011;7457;50.960;6.830;2023-03-23T02:23:41;4.28;;;2.95;;
14732;SDS011;7457;50.960;6.830;2023-03-23T02:34:35;3.03;;;2.72;;
14732;SDS011;7457;50.960;6.830;2023-03-23T02:40:09;3.38;;;2.35;;
14732;SDS011;7457;50.960;6.830;2023-03-23T02:42:42;3.67;;;2.33;;
14732;SDS011;7457;50.960;6.830;2023-03-23T02:45:12;3.10;;;2.50;;
14732;SDS011;7457;50.960;6.830;2023-03-23T02:47:40;4.45;;;2.70;;
14732;SDS011;7457;50.960;6.830;2023-03-23T02:50:08;2.78;;;2.35;;
14732;SDS011;7457;50.960;6.830;2023-03-23T02:52:39;3.67;;;2.70;;
14732;SDS011;7457;50.960;6.830;2023-03-23T02:55:06;2.67;;;2.47;;
14732;SDS011;7457;50.960;6.830;2023-03-23T02:57:33;2.72;;;2.28;;
14732;SDS011;7457;50.960;6.830;2023-03-23T03:00:00;2.55;;;2.35;;
14732;SDS011;7457;50.960;6.830;2023-03-23T03:02:29;4.82;;;2.28;;
14732;SDS011;7457;50.960;6.830;2023-03-23T03:05:08;2.97;;;2.67;;
14732;SDS011;7457;50.960;6.830;2023-03-23T03:10:55;4.05;;;2.30;;
14732;SDS011;7457;50.960;6.830;2023-03-23T03:19:00;2.83;;;2.50;;
14732;SDS011;7457;50.960;6.830;2023-03-23T03:21:36;3.40;;;2.35;;
14732;SDS011;7457;50.960;6.830;2023-03-23T03:24:05;3.67;;;2.40;;
14732;SDS011;7457;50.960;6.830;2023-03-23T03:26:36;2.38;;;2.17;;
14732;SDS011;7457;50.960;6.830;2023-03-23T03:29:04;3.78;;;2.28;;
14732;SDS011;7457;50.960;6.830;2023-03-23T03:31:32;3.42;;;2.53;;
14732;SDS011;7457;50.960;6.830;2023-03-23T03:34:00;3.53;;;2.60;;
14732;SDS011;7457;50.960;6.830;2023-03-23T03:36:31;2.80;;;2.50;;
14732;SDS011;7457;50.960;6.830;2023-03-23T03:39:04;3.40;;;2.30;;
14732;SDS011;7457;50.960;6.830;2023-03-23T03:41:36;3.13;;;2.08;;
14732;SDS011;7457;50.960;6.830;2023-03-23T03:44:03;2.50;;;2.30;;
14732;SDS011;7457;50.960;6.830;2023-03-23T03:46:30;2.38;;;2.17;;
14732;SDS011;7457;50.960;6.830;2023-03-23T03:48:56;2.55;;;2.35;;
14732;SDS011;7457;50.960;6.830;2023-03-23T03:51:23;3.70;;;2.28;;
14732;SDS011;7457;50.960;6.830;2023-03-23T03:53:49;3.50;;;2.10;;
14732;SDS011;7457;50.960;6.830;2023-03-23T03:56:14;4.05;;;2.50;;
14732;SDS011;7457;50.960;6.830;2023-03-23T03:58:40;3.28;;;2.00;;
14732;SDS011;7457;50.960;6.830;2023-03-23T04:01:07;2.72;;;2.25;;
14732;SDS011;7457;50.960;6.830;2023-03-23T04:03:37;2.42;;;2.00;;
14732;SDS011;7457;50.960;6.830;2023-03-23T04:06:03;2.10;;;1.90;;
14732;SDS011;7457;50.960;6.830;2023-03-23T04:08:29;2.33;;;1.85;;
14732;SDS011;7457;50.960;6.830;2023-03-23T04:10:55;2.67;;;2.00;;
14732;SDS011;7457;50.960;6.830;2023-03-23T04:13:21;2.00;;;1.90;;
14732;SDS011;7457;50.960;6.830;2023-03-23T04:15:47;2.92;;;2.28;;
14732;SDS011;7457;50.960;6.830;2023-03-23T04:18:14;5.35;;;2.20;;
14732;SDS011;7457;50.960;6.830;2023-03-23T04:20:42;2.17;;;1.98;;
14732;SDS011;7457;50.960;6.830;2023-03-23T04:23:15;2.40;;;2.20;;
14732;SDS011;7457;50.960;6.830;2023-03-23T04:25:48;2.17;;;2.03;;
14732;SDS011;7457;50.960;6.830;2023-03-23T04:28:15;2.25;;;1.98;;
14732;SDS011;7457;50.960;6.830;2023-03-23T04:30:43;2.28;;;2.08;;
14732;SDS011;7457;50.960;6.830;2023-03-23T04:33:10;2.03;;;1.75;;
14732;SDS011;7457;50.960;6.830;2023-03-23T04:35:40;2.22;;;2.03;;
14732;SDS011;7457;50.960;6.830;2023-03-23T04:38:07;2.40;;;2.20;;
14732;SDS011;7457;50.960;6.830;2023-03-23T04:40:37;2.28;;;2.08;;
14732;SDS011;7457;50.960;6.830;2023-03-23T04:43:04;2.50;;;2.30;;
14732;SDS011;7457;50.960;6.830;2023-03-23T04:45:31;2.42;;;2.20;;
14732;SDS011;7457;50.960;6.830;2023-03-23T04:47:58;2.25;;;2.08;;
14732;SDS011;7457;50.960;6.830;2023-03-23T04:50:29;3.00;;;2.03;;
14732;SDS011;7457;50.960;6.830;2023-03-23T04:52:57;2.33;;;2.13;;
14732;SDS011;7457;50.960;6.830;2023-03-23T04:55:29;2.67;;;2.47;;
14732;SDS011;7457;50.960;6.830;2023-03-23T04:58:04;3.05;;;2.20;;
14732;SDS011;7457;50.960;6.830;2023-03-23T05:00:32;3.28;;;2.20;;
14732;SDS011;7457;50.960;6.830;2023-03-23T05:02:58;2.58;;;2.38;;
14732;SDS011;7457;50.960;6.830;2023-03-23T05:05:25;2.97;;;2.63;;
14732;SDS011;7457;50.960;6.830;2023-03-23T05:07:52;2.60;;;2.40;;
14732;SDS011;7457;50.960;6.830;2023-03-23T05:10:18;2.63;;;2.22;;
14732;SDS011;7457;50.960;6.830;2023-03-23T05:12:44;2.65;;;2.30;;
14732;SDS011;7457;50.960;6.830;2023-03-23T05:15:11;2.88;;;2.58;;
14732;SDS011;7457;50.960;6.830;2023-03-23T05:17:38;3.97;;;3.05;;
14732;SDS011;7457;50.960;6.830;2023-03-23T05:20:06;4.43;;;2.95;;
14732;SDS011;7457;50.960;6.830;2023-03-23T05:22:36;3.35;;;2.45;;
14732;SDS011;7457;50.960;6.830;2023-03-23T05:25:03;3.67;;;2.67;;
14732;SDS011;7457;50.960;6.830;2023-03-23T05:27:36;3.15;;;2.67;;
14732;SDS011;7457;50.960;6.830;2023-03-23T05:30:04;3.40;;;2.67;;
14732;SDS011;7457;50.960;6.830;2023-03-23T05:32:31;2.97;;;2.65;;
14732;SDS011;7457;50.960;6.830;2023-03-23T05:34:57;2.90;;;2.70;;
14732;SDS011;7457;50.960;6.830;2023-03-23T05:37:24;3.10;;;2.63;;
14732;SDS011;7457;50.960;6.830;2023-03-23T05:39:57;3.20;;;2.90;;
14732;SDS011;7457;50.960;6.830;2023-03-23T05:42:26;3.92;;;2.85;;
14732;SDS011;7457;50.960;6.830;2023-03-23T05:44:52;3.50;;;2.67;;
14732;SDS011;7457;50.960;6.830;2023-03-23T05:47:18;2.70;;;2.45;;
14732;SDS011;7457;50.960;6.830;2023-03-23T05:49:44;3.25;;;2.38;;
14732;SDS011;7457;50.960;6.830;2023-03-23T05:52:09;5.00;;;2.30;;
14732;SDS011;7457;50.960;6.830;2023-03-23T05:54:35;3.63;;;2.15;;
14732;SDS011;7457;50.960;6.830;2023-03-23T05:57:02;3.30;;;2.40;;
14732;SDS011;7457;50.960;6.830;2023-03-23T05:59:28;2.60;;;2.17;;
14732;SDS011;7457;50.960;6.830;2023-03-23T06:01:54;2.90;;;2.42;;
14732;SDS011;7457;50.960;6.830;2023-03-23T06:04:20;2.72;;;1.92;;
14732;SDS011;7457;50.960;6.830;2023-03-23T06:06:49;5.22;;;2.28;;
14732;SDS011;7457;50.960;6.830;2023-03-23T06:09:17;2.65;;;2.08;;
14732;SDS011;7457;50.960;6.830;2023-03-23T06:11:43;3.65;;;2.15;;
14732;SDS011;7457;50.960;6.830;2023-03-23T06:14:09;2.50;;;1.80;;
14732;SDS011;7457;50.960;6.830;2023-03-23T06:16:34;3.38;;;2.17;;
14732;SDS011;7457;50.960;6.830;2023-03-23T06:19:00;4.15;;;1.88;;
14732;SDS011;7457;50.960;6.830;2023-03-23T06:21:27;2.70;;;2.00;;
14732;SDS011;7457;50.960;6.830;2023-03-23T06:23:53;4.40;;;2.22;;
14732;SDS011;7457;50.960;6.830;2023-03-23T06:26:20;3.30;;;2.03;;
14732;SDS011;7457;50.960;6.830;2023-03-23T06:28:52;5.30;;;1.90;;
14732;SDS011;7457;50.960;6.830;2023-03-23T06:31:17;3.55;;;2.10;;
14732;SDS011;7457;50.960;6.830;2023-03-23T06:33:45;6.80;;;2.17;;
14732;SDS011;7457;50.960;6.830;2023-03-23T06:36:12;5.10;;;1.90;;
14732;SDS011;7457;50.960;6.830;2023-03-23T06:38:38;2.33;;;1.65;;
14732;SDS011;7457;50.960;6.830;2023-03-23T06:41:04;2.90;;;2.00;;
14732;SDS011;7457;50.960;6.830;2023-03-23T06:43:29;4.03;;;1.90;;
14732;SDS011;7457;50.960;6.830;2023-03-23T06:45:58;2.97;;;1.70;;
14732;SDS011;7457;50.960;6.830;2023-03-23T06:48:24;3.28;;;1.80;;
14732;SDS011;7457;50.960;6.830;2023-03-23T06:50:50;3.28;;;2.00;;
14732;SDS011;7457;50.960;6.830;2023-03-23T06:53:16;3.58;;;1.90;;
14732;SDS011;7457;50.960;6.830;2023-03-23T06:55:42;4.13;;;1.80;;
14732;SDS011;7457;50.960;6.830;2023-03-23T06:58:08;2.67;;;1.40;;
14732;SDS011;7457;50.960;6.830;2023-03-23T07:00:35;4.90;;;1.85;;
14732;SDS011;7457;50.960;6.830;2023-03-23T07:03:00;4.40;;;1.83;;
14732;SDS011;7457;50.960;6.830;2023-03-23T07:05:26;4.60;;;1.98;;
14732;SDS011;7457;50.960;6.830;2023-03-23T07:07:52;5.97;;;2.10;;
14732;SDS011;7457;50.960;6.830;2023-03-23T07:10:17;2.60;;;1.73;;
14732;SDS011;7457;50.960;6.830;2023-03-23T07:12:44;2.83;;;1.70;;
14732;SDS011;7457;50.960;6.830;2023-03-23T07:15:10;4.75;;;1.80;;
14732;SDS011;7457;50.960;6.830;2023-03-23T07:17:37;1.80;;;1.63;;
14732;SDS011;7457;50.960;6.830;2023-03-23T07:20:04;1.85;;;1.70;;
14732;SDS011;7457;50.960;6.830;2023-03-23T07:22:31;2.97;;;1.90;;
14732;SDS011;7457;50.960;6.830;2023-03-23T07:24:57;3.08;;;1.83;;
14732;SDS011;7457;50.960;6.830;2023-03-23T07:27:22;2.95;;;1.65;;
14732;SDS011;7457;50.960;6.830;2023-03-23T07:29:48;2.28;;;1.65;;
14732;SDS011;7457;50.960;6.830;2023-03-23T07:32:15;4.53;;;1.65;;
14732;SDS011;7457;50.960;6.830;2023-03-23T07:34:40;1.77;;;1.50;;
14732;SDS011;7457;50.960;6.830;2023-03-23T07:37:06;2.60;;;2.03;;
14732;SDS011;7457;50.960;6.830;2023-03-23T07:39:32;1.58;;;1.48;;
14732;SDS011;7457;50.960;6.830;2023-03-23T07:41:58;2.70;;;1.70;;
14732;SDS011;7457;50.960;6.830;2023-03-23T07:44:24;3.53;;;1.73;;
14732;SDS011;7457;50.960;6.830;2023-03-23T07:46:51;1.98;;;1.52;;
14732;SDS011;7457;50.960;6.830;2023-03-23T07:49:17;3.53;;;1.90;;
14732;SDS011;7457;50.960;6.830;2023-03-23T07:51:42;2.50;;;1.67;;
14732;SDS011;7457;50.960;6.830;2023-03-23T07:54:08;3.83;;;1.48;;
14732;SDS011;7457;50.960;6.830;2023-03-23T07:56:34;3.17;;;2.08;;
14732;SDS011;7457;50.960;6.830;2023-03-23T07:59:01;4.25;;;1.73;;
14732;SDS011;7457;50.960;6.830;2023-03-23T08:01:27;2.97;;;1.55;;
14732;SDS011;7457;50.960;6.830;2023-03-23T08:03:53;3.47;;;1.88;;
14732;SDS011;7457;50.960;6.830;2023-03-23T08:06:22;2.25;;;1.70;;
14732;SDS011;7457;50.960;6.830;2023-03-23T08:08:48;2.63;;;1.80;;
14732;SDS011;7457;50.960;6.830;2023-03-23T08:11:15;5.03;;;2.08;;
14732;SDS011;7457;50.960;6.830;2023-03-23T08:13:42;3.22;;;1.65;;
14732;SDS011;7457;50.960;6.830;2023-03-23T08:16:08;3.97;;;1.55;;
14732;SDS011;7457;50.960;6.830;2023-03-23T08:18:35;3.50;;;1.40;;
14732;SDS011;7457;50.960;6.830;2023-03-23T08:21:02;3.55;;;1.77;;
14732;SDS011;7457;50.960;6.830;2023-03-23T08:23:33;5.88;;;2.05;;
14732;SDS011;7457;50.960;6.830;2023-03-23T08:26:01;2.90;;;1.48;;
14732;SDS011;7457;50.960;6.830;2023-03-23T08:28:28;4.68;;;1.90;;
14732;SDS011;7457;50.960;6.830;2023-03-23T08:30:53;2.63;;;1.33;;
14732;SDS011;7457;50.960;6.830;2023-03-23T08:33:19;3.97;;;2.03;;
14732;SDS011;7457;50.960;6.830;2023-03-23T08:35:53;3.22;;;1.48;;
14732;SDS011;7457;50.960;6.830;2023-03-23T08:38:23;3.78;;;1.60;;
14732;SDS011;7457;50.960;6.830;2023-03-23T08:40:49;6.10;;;1.90;;
14732;SDS011;7457;50.960;6.830;2023-03-23T08:43:16;3.50;;;1.73;;
14732;SDS011;7457;50.960;6.830;2023-03-23T08:45:42;5.78;;;2.00;;
14732;SDS011;7457;50.960;6.830;2023-03-23T08:48:08;5.57;;;1.90;;
14732;SDS011;7457;50.960;6.830;2023-03-23T08:50:34;8.05;;;1.92;;
14732;SDS011;7457;50.960;6.830;2023-03-23T08:53:00;6.40;;;1.92;;
14732;SDS011;7457;50.960;6.830;2023-03-23T08:55:26;5.80;;;1.90;;
14732;SDS011;7457;50.960;6.830;2023-03-23T08:57:53;8.70;;;1.73;;
14732;SDS011;7457;50.960;6.830;2023-03-23T09:00:20;5.40;;;1.63;;
14732;SDS011;7457;50.960;6.830;2023-03-23T09:02:49;5.90;;;1.95;;
14732;SDS011;7457;50.960;6.830;2023-03-23T09:05:17;7.78;;;1.65;;
14732;SDS011;7457;50.960;6.830;2023-03-23T09:07:47;3.85;;;1.42;;
14732;SDS011;7457;50.960;6.830;2023-03-23T09:10:14;2.83;;;1.50;;
14732;SDS011;7457;50.960;6.830;2023-03-23T09:12:41;4.95;;;1.65;;
14732;SDS011;7457;50.960;6.830;2023-03-23T09:15:08;4.57;;;1.70;;
14732;SDS011;7457;50.960;6.830;2023-03-23T09:17:36;5.85;;;1.88;;
14732;SDS011;7457;50.960;6.830;2023-03-23T09:20:06;5.88;;;1.70;;
14732;SDS011;7457;50.960;6.830;2023-03-23T09:22:37;7.03;;;1.83;;
14732;SDS011;7457;50.960;6.830;2023-03-23T09:25:09;4.68;;;2.00;;
14732;SDS011;7457;50.960;6.830;2023-03-23T09:27:36;3.63;;;1.63;;
14732;SDS011;7457;50.960;6.830;2023-03-23T09:30:04;4.82;;;1.55;;
14732;SDS011;7457;50.960;6.830;2023-03-23T09:32:34;8.80;;;1.90;;
14732;SDS011;7457;50.960;6.830;2023-03-23T09:35:00;8.70;;;2.03;;
14732;SDS011;7457;50.960;6.830;2023-03-23T09:37:27;3.70;;;1.60;;
14732;SDS011;7457;50.960;6.830;2023-03-23T09:39:53;3.78;;;2.17;;
14732;SDS011;7457;50.960;6.830;2023-03-23T09:50:51;3.78;;;1.75;;
14732;SDS011;7457;50.960;6.830;2023-03-23T09:53:27;7.32;;;1.90;;
14732;SDS011;7457;50.960;6.830;2023-03-23T09:56:00;8.10;;;1.80;;
14732;SDS011;7457;50.960;6.830;2023-03-23T09:58:39;5.10;;;1.90;;
14732;SDS011;7457;50.960;6.830;2023-03-23T10:01:35;4.97;;;2.13;;
14732;SDS011;7457;50.960;6.830;2023-03-23T10:04:54;5.07;;;2.40;;
14732;SDS011;7457;50.960;6.830;2023-03-23T10:06:58;4.55;;;2.03;;
14732;SDS011;7457;50.960;6.830;2023-03-23T10:09:25;3.33;;;1.45;;
14732;SDS011;7457;50.960;6.830;2023-03-23T10:17:37;5.32;;;1.67;;
14732;SDS011;7457;50.960;6.830;2023-03-23T10:22:56;3.00;;;1.88;;
14732;SDS011;7457;50.960;6.830;2023-03-23T10:25:35;3.42;;;1.50;;
14732;SDS011;7457;50.960;6.830;2023-03-23T10:28:09;3.28;;;1.30;;
14732;SDS011;7457;50.960;6.830;2023-03-23T10:30:42;4.60;;;1.60;;
14732;SDS011;7457;50.960;6.830;2023-03-23T10:33:22;3.42;;;1.48;;
14732;SDS011;7457;50.960;6.830;2023-03-23T10:38:20;2.45;;;1.02;;
14732;SDS011;7457;50.960;6.830;2023-03-23T10:40:56;2.50;;;1.25;;
14732;SDS011;7457;50.960;6.830;2023-03-23T10:43:30;1.95;;;1.08;;
14732;SDS011;7457;50.960;6.830;2023-03-23T10:45:58;3.72;;;1.58;;
14732;SDS011;7457;50.960;6.830;2023-03-23T10:48:31;2.53;;;1.20;;
14732;SDS011;7457;50.960;6.830;2023-03-23T10:51:02;1.67;;;1.50;;
14732;SDS011;7457;50.960;6.830;2023-03-23T10:53:50;7.40;;;3.38;;
14732;SDS011;7457;50.960;6.830;2023-03-23T10:56:24;3.33;;;1.60;;
14732;SDS011;7457;50.960;6.830;2023-03-23T10:58:52;2.28;;;1.05;;
14732;SDS011;7457;50.960;6.830;2023-03-23T11:01:20;4.30;;;1.40;;
14732;SDS011;7457;50.960;6.830;2023-03-23T11:03:57;6.25;;;4.05;;
14732;SDS011;7457;50.960;6.830;2023-03-23T11:06:34;5.47;;;2.78;;
14732;SDS011;7457;50.960;6.830;2023-03-23T11:11:41;6.85;;;1.40;;
14732;SDS011;7457;50.960;6.830;2023-03-23T11:16:51;3.80;;;1.52;;
14732;SDS011;7457;50.960;6.830;2023-03-23T11:21:54;4.93;;;1.17;;
14732;SDS011;7457;50.960;6.830;2023-03-23T11:24:32;1.83;;;1.05;;
14732;SDS011;7457;50.960;6.830;2023-03-23T11:27:05;5.03;;;1.15;;
14732;SDS011;7457;50.960;6.830;2023-03-23T11:29:33;3.58;;;1.30;;
14732;SDS011;7457;50.960;6.830;2023-03-23T11:42:38;5.25;;;0.93;;
14732;SDS011;7457;50.960;6.830;2023-03-23T11:51:08;6.55;;;1.38;;
14732;SDS011;7457;50.960;6.830;2023-03-23T11:53:59;5.38;;;1.45;;
14732;SDS011;7457;50.960;6.830;2023-03-23T11:56:35;4.32;;;0.93;;
14732;SDS011;7457;50.960;6.830;2023-03-23T11:59:02;3.63;;;0.70;;
14732;SDS011;7457;50.960;6.830;2023-03-23T12:01:41;2.17;;;0.73;;
14732;SDS011;7457;50.960;6.830;2023-03-23T12:07:14;3.97;;;0.95;;
14732;SDS011;7457;50.960;6.830;2023-03-23T12:15:29;4.05;;;1.05;;
14732;SDS011;7457;50.960;6.830;2023-03-23T12:18:17;6.68;;;1.10;;
14732;SDS011;7457;50.960;6.830;2023-03-23T12:21:17;3.53;;;1.35;;
14732;SDS011;7457;50.960;6.830;2023-03-23T12:26:55;9.20;;;1.52;;
14732;SDS011;7457;50.960;6.830;2023-03-23T12:37:52;3.65;;;1.63;;
14732;SDS011;7457;50.960;6.830;2023-03-23T12:48:37;4.30;;;1.25;;
14732;SDS011;7457;50.960;6.830;2023-03-23T12:53:41;10.88;;;1.40;;
14732;SDS011;7457;50.960;6.830;2023-03-23T12:56:35;7.03;;;1.92;;
14732;SDS011;7457;50.960;6.830;2023-03-23T12:59:11;2.00;;;1.35;;
14732;SDS011;7457;50.960;6.830;2023-03-23T13:01:45;4.88;;;1.42;;
14732;SDS011;7457;50.960;6.830;2023-03-23T13:04:21;5.18;;;1.98;;
14732;SDS011;7457;50.960;6.830;2023-03-23T13:06:55;3.58;;;1.42;;
14732;SDS011;7457;50.960;6.830;2023-03-23T13:12:12;6.68;;;1.73;;
14732;SDS011;7457;50.960;6.830;2023-03-23T13:23:14;4.68;;;1.63;;
14732;SDS011;7457;50.960;6.830;2023-03-23T13:25:55;3.88;;;1.50;;
14732;SDS011;7457;50.960;6.830;2023-03-23T13:28:32;3.35;;;1.50;;
14732;SDS011;7457;50.960;6.830;2023-03-23T13:31:45;8.82;;;1.98;;
14732;SDS011;7457;50.960;6.830;2023-03-23T13:36:59;2.55;;;1.30;;
14732;SDS011;7457;50.960;6.830;2023-03-23T13:39:32;3.10;;;1.70;;
14732;SDS011;7457;50.960;6.830;2023-03-23T13:42:18;2.50;;;1.20;;
14732;SDS011;7457;50.960;6.830;2023-03-23T14:10:35;2.13;;;0.98;;
14732;SDS011;7457;50.960;6.830;2023-03-23T14:13:10;4.90;;;1.25;;
14732;SDS011;7457;50.960;6.830;2023-03-23T14:15:43;2.50;;;1.23;;
14732;SDS011;7457;50.960;6.830;2023-03-23T14:18:18;2.72;;;1.38;;
14732;SDS011;7457;50.960;6.830;2023-03-23T14:20:46;2.65;;;1.33;;
14732;SDS011;7457;50.960;6.830;2023-03-23T14:23:17;1.73;;;1.15;;
14732;SDS011;7457;50.960;6.830;2023-03-23T14:25:44;5.50;;;1.90;;
14732;SDS011;7457;50.960;6.830;2023-03-23T14:28:19;2.95;;;1.45;;
14732;SDS011;7457;50.960;6.830;2023-03-23T14:30:46;1.42;;;1.17;;
14732;SDS011;7457;50.960;6.830;2023-03-23T14:33:17;5.80;;;1.70;;
14732;SDS011;7457;50.960;6.830;2023-03-23T14:35:44;3.63;;;1.40;;
14732;SDS011;7457;50.960;6.830;2023-03-23T14:38:16;4.63;;;1.55;;
14732;SDS011;7457;50.960;6.830;2023-03-23T14:40:45;3.92;;;1.70;;
14732;SDS011;7457;50.960;6.830;2023-03-23T14:43:12;2.05;;;1.30;;
14732;SDS011;7457;50.960;6.830;2023-03-23T14:45:41;3.42;;;1.67;;
14732;SDS011;7457;50.960;6.830;2023-03-23T14:48:06;3.92;;;2.17;;
14732;SDS011;7457;50.960;6.830;2023-03-23T14:50:37;2.60;;;1.63;;
14732;SDS011;7457;50.960;6.830;2023-03-23T14:53:18;2.78;;;1.70;;
14732;SDS011;7457;50.960;6.830;2023-03-23T14:55:49;6.10;;;2.17;;
14732;SDS011;7457;50.960;6.830;2023-03-23T14:58:17;3.13;;;1.67;;
14732;SDS011;7457;50.960;6.830;2023-03-23T15:00:47;4.57;;;1.88;;
14732;SDS011;7457;50.960;6.830;2023-03-23T15:03:24;3.67;;;1.67;;
14732;SDS011;7457;50.960;6.830;2023-03-23T15:05:53;4.75;;;1.80;;
14732;SDS011;7457;50.960;6.830;2023-03-23T15:08:31;5.07;;;1.65;;
14732;SDS011;7457;50.960;6.830;2023-03-23T15:11:11;9.77;;;2.47;;
14732;SDS011;7457;50.960;6.830;2023-03-23T15:13:49;12.50;;;1.98;;
14732;SDS011;7457;50.960;6.830;2023-03-23T15:16:26;7.25;;;1.98;;
14732;SDS011;7457;50.960;6.830;2023-03-23T15:21:22;14.15;;;1.95;;
14732;SDS011;7457;50.960;6.830;2023-03-23T15:23:49;4.07;;;2.38;;
14732;SDS011;7457;50.960;6.830;2023-03-23T15:26:31;9.43;;;1.95;;
14732;SDS011;7457;50.960;6.830;2023-03-23T15:31:40;5.20;;;1.75;;
14732;SDS011;7457;50.960;6.830;2023-03-23T15:34:10;2.00;;;1.38;;
14732;SDS011;7457;50.960;6.830;2023-03-23T15:37:00;2.67;;;1.60;;
14732;SDS011;7457;50.960;6.830;2023-03-23T15:39:28;5.25;;;1.90;;
14732;SDS011;7457;50.960;6.830;2023-03-23T15:41:55;2.05;;;1.65;;
14732;SDS011;7457;50.960;6.830;2023-03-23T15:44:22;4.68;;;1.85;;
14732;SDS011;7457;50.960;6.830;2023-03-23T15:47:12;3.72;;;1.95;;
14732;SDS011;7457;50.960;6.830;2023-03-23T15:49:42;3.65;;;2.00;;
14732;SDS011;7457;50.960;6.830;2023-03-23T15:52:10;5.90;;;1.85;;
14732;SDS011;7457;50.960;6.830;2023-03-23T15:54:37;4.68;;;1.90;;
14732;SDS011;7457;50.960;6.830;2023-03-23T15:57:03;3.58;;;1.85;;
14732;SDS011;7457;50.960;6.830;2023-03-23T15:59:29;3.47;;;1.98;;
14732;SDS011;7457;50.960;6.830;2023-03-23T16:01:55;4.82;;;2.05;;
14732;SDS011;7457;50.960;6.830;2023-03-23T16:04:21;2.63;;;1.83;;
14732;SDS011;7457;50.960;6.830;2023-03-23T16:06:47;4.30;;;1.90;;
14732;SDS011;7457;50.960;6.830;2023-03-23T16:09:16;6.88;;;2.10;;
14732;SDS011;7457;50.960;6.830;2023-03-23T16:11:43;3.25;;;1.77;;
14732;SDS011;7457;50.960;6.830;2023-03-23T16:14:09;8.32;;;2.00;;
14732;SDS011;7457;50.960;6.830;2023-03-23T16:16:37;4.05;;;1.80;;
14732;SDS011;7457;50.960;6.830;2023-03-23T16:19:03;3.88;;;2.05;;
14732;SDS011;7457;50.960;6.830;2023-03-23T16:21:30;3.78;;;1.80;;
14732;SDS011;7457;50.960;6.830;2023-03-23T16:23:55;2.78;;;2.08;;
14732;SDS011;7457;50.960;6.830;2023-03-23T16:26:21;3.65;;;1.67;;
14732;SDS011;7457;50.960;6.830;2023-03-23T16:28:47;6.97;;;2.05;;
14732;SDS011;7457;50.960;6.830;2023-03-23T16:31:13;4.07;;;1.80;;
14732;SDS011;7457;50.960;6.830;2023-03-23T16:33:38;4.63;;;2.15;;
14732;SDS011;7457;50.960;6.830;2023-03-23T16:36:04;5.63;;;2.17;;
14732;SDS011;7457;50.960;6.830;2023-03-23T16:38:30;3.22;;;1.77;;
14732;SDS011;7457;50.960;6.830;2023-03-23T16:40:56;3.20;;;1.75;;
14732;SDS011;7457;50.960;6.830;2023-03-23T16:43:21;4.93;;;1.70;;
14732;SDS011;7457;50.960;6.830;2023-03-23T16:45:47;3.83;;;2.10;;
14732;SDS011;7457;50.960;6.830;2023-03-23T16:48:13;3.00;;;2.15;;
14732;SDS011;7457;50.960;6.830;2023-03-23T16:50:41;5.50;;;2.53;;
14732;SDS011;7457;50.960;6.830;2023-03-23T16:53:07;5.40;;;2.53;;
14732;SDS011;7457;50.960;6.830;2023-03-23T16:55:34;5.13;;;2.30;;
14732;SDS011;7457;50.960;6.830;2023-03-23T16:58:01;3.92;;;2.00;;
14732;SDS011;7457;50.960;6.830;2023-03-23T17:00:27;6.30;;;2.72;;
14732;SDS011;7457;50.960;6.830;2023-03-23T17:02:54;3.25;;;1.90;;
14732;SDS011;7457;50.960;6.830;2023-03-23T17:05:24;5.53;;;2.53;;
14732;SDS011;7457;50.960;6.830;2023-03-23T17:07:52;3.83;;;2.03;;
14732;SDS011;7457;50.960;6.830;2023-03-23T17:10:19;5.20;;;2.20;;
14732;SDS011;7457;50.960;6.830;2023-03-23T17:12:45;6.22;;;2.80;;
14732;SDS011;7457;50.960;6.830;2023-03-23T17:15:11;6.13;;;2.50;;
14732;SDS011;7457;50.960;6.830;2023-03-23T17:17:37;5.43;;;2.50;;
14732;SDS011;7457;50.960;6.830;2023-03-23T17:20:03;7.43;;;2.80;;
14732;SDS011;7457;50.960;6.830;2023-03-23T17:22:29;4.50;;;2.22;;
14732;SDS011;7457;50.960;6.830;2023-03-23T17:24:55;5.53;;;2.60;;
14732;SDS011;7457;50.960;6.830;2023-03-23T17:27:23;7.07;;;2.35;;
14732;SDS011;7457;50.960;6.830;2023-03-23T17:29:49;6.47;;;2.70;;
14732;SDS011;7457;50.960;6.830;2023-03-23T17:32:16;6.47;;;2.67;;
14732;SDS011;7457;50.960;6.830;2023-03-23T17:34:42;6.00;;;2.33;;
14732;SDS011;7457;50.960;6.830;2023-03-23T17:37:08;6.45;;;2.30;;
14732;SDS011;7457;50.960;6.830;2023-03-23T17:39:34;5.28;;;2.13;;
14732;SDS011;7457;50.960;6.830;2023-03-23T17:42:00;5.68;;;2.50;;